createdAt,value
2022-08-19T00:01:37.770Z,99.90
2022-08-19T00:04:07.837Z,99.90
2022-08-19T00:06:36.500Z,99.90
2022-08-19T00:09:06.398Z,99.90
2022-08-19T00:11:37.031Z,99.90
2022-08-19T00:14:05.793Z,99.90
2022-08-19T00:16:32.865Z,99.90
2022-08-19T00:19:00.037Z,99.90
2022-08-19T00:21:31.151Z,99.90
2022-08-19T00:23:59.314Z,99.90
2022-08-19T00:26:28.534Z,99.90
2022-08-19T00:28:56.078Z,99.90
2022-08-19T00:31:23.132Z,99.90
2022-08-19T00:33:51.480Z,99.90
2022-08-19T00:36:18.754Z,99.90
2022-08-19T00:38:45.834Z,99.90
2022-08-19T00:41:19.080Z,99.90
2022-08-19T00:44:18.091Z,99.90
2022-08-19T00:46:55.361Z,99.90
2022-08-19T00:49:46.613Z,99.90
2022-08-19T00:52:17.674Z,99.90
2022-08-19T00:54:49.705Z,99.90
2022-08-19T00:57:24.629Z,99.90
2022-08-19T01:00:01.677Z,99.90
2022-08-19T01:02:31.065Z,99.90
2022-08-19T01:04:58.281Z,99.90
2022-08-19T01:07:25.541Z,99.90
2022-08-19T01:09:53.553Z,99.90
2022-08-19T01:12:21.255Z,99.90
2022-08-19T01:14:48.741Z,99.90
2022-08-19T01:17:16.871Z,99.90
2022-08-19T01:19:46.836Z,99.90
2022-08-19T01:22:28.671Z,99.90
2022-08-19T01:24:55.723Z,99.90
2022-08-19T01:27:23.328Z,99.90
2022-08-19T01:29:51.590Z,99.90
2022-08-19T01:32:32.441Z,99.90
2022-08-19T01:35:02.587Z,99.90
2022-08-19T01:37:31.348Z,99.90
2022-08-19T01:39:58.520Z,99.90
2022-08-19T01:42:30.326Z,99.90
2022-08-19T01:44:57.726Z,99.90
2022-08-19T01:47:24.502Z,99.90
2022-08-19T01:49:51.278Z,99.90
2022-08-19T01:52:18.095Z,99.90
2022-08-19T01:54:44.851Z,99.90
2022-08-19T01:57:13.734Z,99.90
2022-08-19T01:59:43.655Z,99.90
2022-08-19T02:02:10.452Z,99.90
2022-08-19T02:04:39.097Z,99.90
2022-08-19T02:07:06.977Z,99.90
2022-08-19T02:09:33.950Z,99.90
2022-08-19T02:12:00.997Z,99.90
2022-08-19T02:14:28.052Z,99.90
2022-08-19T02:16:54.881Z,99.90
2022-08-19T02:19:21.677Z,99.90
2022-08-19T02:21:48.533Z,99.90
2022-08-19T02:24:15.437Z,99.90
2022-08-19T02:26:42.250Z,99.90
2022-08-19T02:29:09.106Z,99.90
2022-08-19T02:31:35.875Z,99.90
2022-08-19T02:34:02.922Z,99.90
2022-08-19T02:36:30.289Z,99.90
2022-08-19T02:38:57.538Z,99.90
2022-08-19T02:41:29.228Z,99.90
2022-08-19T02:44:14.265Z,99.90
2022-08-19T02:46:48.285Z,99.90
2022-08-19T02:49:17.579Z,99.90
2022-08-19T02:51:46.683Z,99.90
2022-08-19T02:54:14.335Z,99.90
2022-08-19T02:56:42.461Z,99.90
2022-08-19T02:59:11.994Z,99.90
2022-08-19T03:01:41.477Z,99.90
2022-08-19T03:04:10.742Z,99.90
2022-08-19T03:06:39.924Z,99.90
2022-08-19T03:09:06.791Z,99.90
2022-08-19T03:11:33.850Z,99.90
2022-08-19T03:14:01.545Z,99.90
2022-08-19T03:16:33.252Z,99.90
2022-08-19T03:19:01.192Z,99.90
2022-08-19T03:21:30.500Z,99.90
2022-08-19T03:23:59.425Z,99.90
2022-08-19T03:26:26.844Z,99.90
2022-08-19T03:28:58.184Z,99.90
2022-08-19T03:31:45.588Z,99.90
2022-08-19T03:34:18.731Z,99.90
2022-08-19T03:36:46.894Z,99.90
2022-08-19T03:39:14.738Z,99.90
2022-08-19T03:41:46.237Z,99.90
2022-08-19T03:44:16.919Z,99.90
2022-08-19T03:46:47.201Z,99.90
2022-08-19T03:49:14.725Z,99.90
2022-08-19T03:51:43.753Z,99.90
2022-08-19T03:54:14.231Z,99.90
2022-08-19T03:56:43.456Z,99.90
2022-08-19T03:59:14.349Z,99.90
2022-08-19T04:01:42.024Z,99.90
2022-08-19T04:04:09.264Z,99.90
2022-08-19T04:06:39.596Z,99.90
2022-08-19T04:09:10.273Z,99.90
2022-08-19T04:11:44.539Z,99.90
2022-08-19T04:14:21.849Z,99.90
2022-08-19T04:16:50.031Z,99.90
2022-08-19T04:19:18.379Z,99.90
2022-08-19T04:21:48.197Z,99.90
2022-08-19T04:24:15.667Z,99.90
2022-08-19T04:26:42.597Z,99.90
2022-08-19T04:29:16.340Z,99.90
2022-08-19T04:31:45.323Z,99.90
2022-08-19T04:34:14.634Z,99.90
2022-08-19T04:36:43.363Z,99.90
2022-08-19T04:39:14.258Z,99.90
2022-08-19T04:41:59.872Z,99.90
2022-08-19T04:44:27.352Z,99.90
2022-08-19T04:46:54.304Z,99.90
2022-08-19T04:49:23.445Z,99.90
2022-08-19T04:51:52.314Z,99.90
2022-08-19T04:54:30.934Z,99.90
2022-08-19T04:57:09.616Z,99.90
2022-08-19T04:59:38.456Z,99.90
2022-08-19T05:02:05.711Z,99.90
2022-08-19T05:04:34.631Z,99.90
2022-08-19T05:07:02.358Z,99.90
2022-08-19T05:09:36.139Z,99.90
2022-08-19T05:12:18.670Z,99.90
2022-08-19T05:14:48.262Z,99.90
2022-08-19T05:17:34.901Z,99.90
2022-08-19T05:20:21.947Z,99.90
2022-08-19T05:22:49.246Z,99.90
2022-08-19T05:25:21.073Z,99.90
2022-08-19T05:27:48.724Z,99.90
2022-08-19T05:30:16.585Z,99.90
2022-08-19T05:32:43.815Z,99.90
2022-08-19T05:35:10.842Z,99.90
2022-08-19T05:37:38.049Z,99.90
2022-08-19T05:40:05.671Z,99.90
2022-08-19T05:42:32.582Z,99.90
2022-08-19T05:44:59.680Z,99.90
2022-08-19T05:47:26.780Z,99.90
2022-08-19T05:49:53.631Z,99.90
2022-08-19T05:52:25.512Z,99.90
2022-08-19T05:54:56.018Z,99.90
2022-08-19T05:57:24.135Z,99.90
2022-08-19T05:59:53.065Z,99.90
2022-08-19T06:02:26.043Z,99.90
2022-08-19T06:04:52.898Z,99.90
2022-08-19T06:07:20.569Z,99.90
2022-08-19T06:09:59.337Z,99.90
2022-08-19T06:12:29.917Z,99.90
2022-08-19T06:15:01.591Z,99.90
2022-08-19T06:17:31.271Z,99.90
2022-08-19T06:19:59.223Z,99.90
2022-08-19T06:22:25.959Z,99.90
2022-08-19T06:24:54.616Z,99.90
2022-08-19T06:27:22.339Z,99.90
2022-08-19T06:29:49.696Z,99.90
2022-08-19T06:32:19.048Z,99.90
2022-08-19T06:34:45.924Z,99.90
2022-08-19T06:37:12.797Z,99.90
2022-08-19T06:39:42.043Z,99.90
2022-08-19T06:42:12.445Z,99.90
2022-08-19T06:44:42.832Z,99.90
2022-08-19T06:47:23.368Z,99.90
2022-08-19T06:50:03.079Z,99.90
2022-08-19T06:52:36.490Z,99.90
2022-08-19T06:55:05.858Z,99.90
2022-08-19T06:57:34.149Z,99.90
2022-08-19T07:00:01.291Z,99.90
2022-08-19T07:02:28.281Z,99.90
2022-08-19T07:04:55.217Z,99.90
2022-08-19T07:07:23.242Z,99.90
2022-08-19T07:09:52.240Z,99.90
2022-08-19T07:12:30.806Z,99.90
2022-08-19T07:14:58.792Z,99.90
2022-08-19T07:17:26.292Z,99.90
2022-08-19T07:19:54.241Z,99.90
2022-08-19T07:22:23.844Z,99.90
2022-08-19T07:24:52.173Z,99.90
2022-08-19T07:27:24.415Z,99.90
2022-08-19T07:29:56.289Z,99.90
2022-08-19T07:32:27.457Z,99.90
2022-08-19T07:34:55.111Z,99.90
2022-08-19T07:37:28.324Z,99.90
2022-08-19T07:39:57.768Z,99.90
2022-08-19T07:42:24.688Z,99.90
2022-08-19T07:44:51.531Z,99.90
2022-08-19T07:47:49.961Z,99.90
2022-08-19T07:50:09.799Z,99.90
2022-08-19T07:52:39.597Z,99.90
2022-08-19T07:55:40.125Z,99.90
2022-08-19T07:57:56.072Z,99.90
2022-08-19T08:00:24.283Z,99.90
2022-08-19T08:02:51.725Z,99.90
2022-08-19T08:05:39.666Z,99.90
2022-08-19T08:08:28.369Z,99.90
2022-08-19T08:10:57.131Z,99.90
2022-08-19T08:13:25.335Z,99.90
2022-08-19T08:15:55.942Z,99.90
2022-08-19T08:18:28.150Z,99.90
2022-08-19T08:20:57.947Z,99.90
2022-08-19T08:23:27.548Z,99.90
2022-08-19T08:25:56.844Z,99.90
2022-08-19T08:28:29.562Z,99.90
2022-08-19T08:30:58.121Z,99.90
2022-08-19T08:33:34.413Z,99.90
2022-08-19T08:36:12.174Z,99.90
2022-08-19T08:38:40.910Z,99.90
2022-08-19T08:41:28.872Z,99.90
2022-08-19T08:43:58.090Z,99.90
2022-08-19T08:46:41.066Z,99.90
2022-08-19T08:49:25.176Z,99.90
2022-08-19T08:52:06.593Z,99.90
2022-08-19T08:54:48.946Z,99.90
2022-08-19T08:57:40.827Z,99.90
2022-08-19T09:00:17.454Z,99.90
2022-08-19T09:02:50.894Z,99.90
2022-08-19T09:05:22.246Z,99.90
2022-08-19T09:08:46.047Z,99.90
2022-08-19T09:11:42.078Z,99.90
2022-08-19T09:14:47.345Z,99.90
2022-08-19T09:17:12.440Z,99.90
2022-08-19T09:19:54.391Z,99.90
2022-08-19T09:22:25.510Z,99.90
2022-08-19T09:24:54.810Z,99.90
2022-08-19T09:27:41.721Z,99.90
2022-08-19T09:30:12.823Z,99.90
2022-08-19T09:32:43.257Z,99.90
2022-08-19T09:35:10.494Z,99.90
2022-08-19T09:37:37.547Z,99.90
2022-08-19T09:40:05.795Z,99.90
2022-08-19T09:42:35.372Z,99.90
2022-08-19T09:45:05.138Z,99.90
2022-08-19T09:47:40.567Z,99.90
2022-08-19T09:50:09.908Z,99.90
2022-08-19T09:52:37.688Z,99.90
2022-08-19T09:55:10.978Z,99.90
2022-08-19T09:57:38.519Z,99.90
2022-08-19T10:00:08.558Z,99.90
2022-08-19T10:02:36.191Z,99.90
2022-08-19T10:05:26.655Z,99.90
2022-08-19T10:07:54.180Z,99.90
2022-08-19T10:10:23.903Z,99.90
2022-08-19T10:12:51.596Z,99.90
2022-08-19T10:15:29.211Z,99.90
2022-08-19T10:17:56.867Z,99.90
2022-08-19T10:20:25.967Z,99.90
2022-08-19T10:22:53.468Z,99.90
2022-08-19T10:25:20.414Z,99.90
2022-08-19T10:27:51.302Z,99.90
2022-08-19T10:30:22.837Z,4.10
2022-08-19T10:32:51.847Z,1.00
2022-08-19T10:35:21.901Z,99.90
2022-08-19T10:37:57.448Z,1.00
2022-08-19T10:40:28.657Z,99.90
2022-08-19T10:42:56.543Z,1.00
2022-08-19T10:45:26.897Z,99.90
2022-08-19T10:47:55.300Z,1.00
2022-08-19T10:50:41.671Z,99.90
2022-08-19T10:53:09.874Z,1.00
2022-08-19T10:55:55.939Z,72.80
2022-08-19T10:58:27.089Z,1.00
2022-08-19T11:00:57.437Z,96.90
2022-08-19T11:03:25.461Z,97.60
2022-08-19T11:06:01.511Z,31.70
2022-08-19T11:08:28.582Z,1.00
2022-08-19T11:11:01.490Z,1.00
2022-08-19T11:13:29.618Z,1.00
2022-08-19T11:16:11.369Z,99.90
2022-08-19T11:18:40.061Z,99.90
2022-08-19T11:21:13.638Z,1.00
2022-08-19T11:23:41.295Z,99.90
2022-08-19T11:26:08.088Z,1.00
2022-08-19T11:28:34.910Z,1.00
2022-08-19T11:31:04.262Z,99.90
2022-08-19T11:33:32.250Z,99.90
2022-08-19T11:36:00.878Z,1.00
2022-08-19T11:38:28.409Z,99.90
2022-08-19T11:41:00.440Z,1.00
2022-08-19T11:43:27.841Z,1.00
2022-08-19T11:45:56.236Z,99.90
2022-08-19T11:48:23.471Z,35.40
2022-08-19T11:50:51.386Z,99.90
2022-08-19T11:53:21.092Z,1.00
2022-08-19T11:55:56.968Z,99.90
2022-08-19T11:58:25.878Z,1.00
2022-08-19T12:00:53.477Z,1.00
2022-08-19T12:03:20.554Z,1.00
2022-08-19T12:05:47.567Z,1.00
2022-08-19T12:08:14.887Z,1.00
2022-08-19T12:10:49.220Z,1.00
2022-08-19T12:13:19.615Z,1.00
2022-08-19T12:15:48.260Z,1.00
2022-08-19T12:18:15.558Z,1.00
2022-08-19T12:20:48.959Z,1.00
2022-08-19T12:23:16.805Z,99.90
2022-08-19T12:25:52.768Z,99.90
2022-08-19T12:28:25.259Z,99.90
2022-08-19T12:30:52.883Z,99.90
2022-08-19T12:33:27.398Z,1.00
2022-08-19T12:35:54.781Z,1.00
2022-08-19T12:38:25.175Z,1.00
2022-08-19T12:40:55.993Z,1.00
2022-08-19T12:43:25.395Z,1.00
2022-08-19T12:45:52.325Z,34.90
2022-08-19T12:48:33.877Z,1.00
2022-08-19T12:51:07.759Z,1.00
2022-08-19T12:53:34.688Z,1.00
2022-08-19T12:56:07.611Z,1.00
2022-08-19T12:58:40.149Z,1.00
2022-08-19T13:01:12.524Z,1.00
2022-08-19T13:03:40.726Z,99.90
2022-08-19T13:06:08.676Z,1.00
2022-08-19T13:08:36.259Z,1.00
2022-08-19T13:11:18.884Z,99.90
2022-08-19T13:13:48.723Z,1.00
2022-08-19T13:16:16.747Z,99.90
2022-08-19T13:18:47.425Z,1.00
2022-08-19T13:21:14.597Z,1.00
2022-08-19T13:23:42.210Z,28.50
2022-08-19T13:26:11.334Z,99.90
2022-08-19T13:28:56.909Z,99.90
2022-08-19T13:31:45.034Z,1.00
2022-08-19T13:34:11.973Z,1.00
2022-08-19T13:36:39.518Z,99.90
2022-08-19T13:39:08.609Z,1.00
2022-08-19T13:41:35.914Z,1.00
2022-08-19T13:44:03.532Z,1.00
2022-08-19T13:46:30.984Z,1.00
2022-08-19T13:48:58.464Z,99.90
2022-08-19T13:51:25.480Z,99.90
2022-08-19T13:53:52.438Z,1.00
2022-08-19T13:56:25.389Z,51.00
2022-08-19T13:58:52.962Z,1.00
2022-08-19T14:01:22.108Z,1.00
2022-08-19T14:03:51.546Z,1.00
2022-08-19T14:06:18.314Z,1.00
2022-08-19T14:08:46.375Z,1.00
2022-08-19T14:11:13.714Z,1.00
2022-08-19T14:13:40.611Z,99.90
2022-08-19T14:16:09.974Z,99.90
2022-08-19T14:18:37.036Z,1.00
2022-08-19T14:21:05.666Z,1.00
2022-08-19T14:23:33.470Z,99.90
2022-08-19T14:26:13.361Z,99.90
2022-08-19T14:28:42.763Z,1.00
2022-08-19T14:31:17.580Z,1.00
2022-08-19T14:33:44.406Z,1.00
2022-08-19T14:36:11.225Z,1.00
2022-08-19T14:38:38.019Z,99.90
2022-08-19T14:41:17.805Z,64.20
2022-08-19T14:43:49.236Z,99.90
2022-08-19T14:46:18.105Z,1.00
2022-08-19T14:48:45.391Z,1.00
2022-08-19T14:51:12.506Z,1.00
2022-08-19T14:53:39.844Z,1.00
2022-08-19T14:56:11.800Z,1.00
2022-08-19T14:58:41.275Z,1.00
2022-08-19T15:01:09.372Z,1.00
2022-08-19T15:03:36.345Z,1.00
2022-08-19T15:06:06.359Z,1.00
2022-08-19T15:08:36.428Z,1.00
2022-08-19T15:11:03.787Z,1.00
2022-08-19T15:13:31.129Z,35.10
2022-08-19T15:15:58.199Z,99.90
2022-08-19T15:18:25.473Z,1.00
2022-08-19T15:20:52.567Z,1.00
2022-08-19T15:23:20.586Z,99.90
2022-08-19T15:25:47.760Z,1.00
2022-08-19T15:28:17.207Z,1.00
2022-08-19T15:30:44.556Z,1.00
2022-08-19T15:33:15.446Z,1.00
2022-08-19T15:35:43.337Z,1.00
2022-08-19T15:38:11.729Z,1.00
2022-08-19T15:40:38.493Z,99.90
2022-08-19T15:43:05.343Z,1.00
2022-08-19T15:45:34.999Z,99.90
2022-08-19T15:48:04.017Z,99.90
2022-08-19T15:50:32.062Z,99.90
2022-08-19T15:53:02.283Z,99.90
2022-08-19T15:55:34.750Z,99.90
2022-08-19T15:58:28.066Z,99.90
2022-08-19T16:01:20.811Z,99.90
2022-08-19T16:04:13.970Z,99.90
2022-08-19T16:06:54.201Z,99.90
2022-08-19T16:09:27.233Z,99.90
2022-08-19T16:11:57.248Z,99.90
2022-08-19T16:14:29.516Z,99.90
2022-08-19T16:16:56.957Z,99.90
2022-08-19T16:19:24.993Z,99.90
2022-08-19T16:21:54.748Z,99.90
2022-08-19T16:24:24.019Z,99.90
2022-08-19T16:26:50.887Z,99.90
2022-08-19T16:29:33.856Z,99.90
2022-08-19T16:32:10.219Z,99.90
2022-08-19T16:34:38.963Z,99.90
2022-08-19T16:37:05.861Z,99.90
2022-08-19T16:39:32.762Z,99.90
2022-08-19T16:41:59.960Z,99.90
2022-08-19T16:44:29.581Z,99.90
2022-08-19T16:46:59.127Z,99.90
2022-08-19T16:49:54.077Z,99.90
2022-08-19T16:52:19.030Z,99.90
2022-08-19T16:54:46.824Z,99.90
2022-08-19T16:57:13.888Z,99.90
2022-08-19T16:59:44.141Z,99.90
2022-08-19T17:02:20.379Z,99.90
2022-08-19T17:04:57.792Z,99.90
2022-08-19T17:07:26.369Z,99.90
2022-08-19T17:09:53.382Z,99.90
2022-08-19T17:12:20.134Z,99.90
2022-08-19T17:14:46.881Z,99.90
2022-08-19T17:17:13.774Z,99.90
2022-08-19T17:19:42.188Z,99.90
2022-08-19T17:22:10.208Z,99.90
2022-08-19T17:24:40.534Z,99.90
2022-08-19T17:27:08.972Z,99.90
2022-08-19T17:29:35.843Z,99.90
2022-08-19T17:32:02.992Z,99.90
2022-08-19T17:34:29.805Z,99.90
2022-08-19T17:36:57.033Z,99.90
2022-08-19T17:39:24.061Z,99.90
2022-08-19T17:41:50.966Z,99.90
2022-08-19T17:44:18.962Z,99.90
2022-08-19T17:46:46.788Z,99.90
2022-08-19T17:49:14.723Z,99.90
2022-08-19T17:51:45.470Z,99.90
2022-08-19T17:54:17.170Z,99.90
2022-08-19T17:56:45.266Z,99.90
2022-08-19T17:59:14.267Z,99.90
2022-08-19T18:01:52.760Z,99.90
2022-08-19T18:04:21.468Z,99.90
2022-08-19T18:06:53.058Z,99.90
2022-08-19T18:09:30.038Z,99.90
2022-08-19T18:12:10.392Z,99.90
2022-08-19T18:14:39.300Z,99.90
2022-08-19T18:17:12.456Z,99.90
2022-08-19T18:19:42.966Z,99.90
2022-08-19T18:22:33.991Z,99.90
2022-08-19T18:25:02.146Z,99.90
2022-08-19T18:27:28.949Z,99.90
2022-08-19T18:29:59.105Z,99.90
2022-08-19T18:32:30.299Z,99.90
2022-08-19T18:34:57.098Z,99.90
2022-08-19T18:37:26.070Z,99.90
2022-08-19T18:40:11.924Z,99.90
2022-08-19T18:43:22.369Z,99.90
2022-08-19T18:46:08.711Z,99.90
2022-08-19T18:48:55.243Z,99.90
2022-08-19T18:51:27.724Z,99.90
2022-08-19T18:53:57.293Z,99.90
2022-08-19T18:56:28.454Z,99.90
2022-08-19T18:58:58.785Z,99.90
2022-08-19T19:01:30.779Z,99.90
2022-08-19T19:04:04.548Z,99.90
2022-08-19T19:06:40.127Z,99.90
2022-08-19T19:09:21.049Z,99.90
2022-08-19T19:11:51.534Z,99.90
2022-08-19T19:14:47.693Z,99.90
2022-08-19T19:17:14.810Z,99.90
2022-08-19T19:19:42.847Z,99.90
2022-08-19T19:22:17.498Z,99.90
2022-08-19T19:24:44.439Z,99.90
2022-08-19T19:27:13.575Z,99.90
2022-08-19T19:29:42.163Z,99.90
2022-08-19T19:32:16.585Z,99.90
2022-08-19T19:34:43.571Z,99.90
2022-08-19T19:37:10.330Z,99.90
2022-08-19T19:39:46.292Z,99.90
2022-08-19T19:42:20.356Z,99.90
2022-08-19T19:44:50.222Z,99.90
2022-08-19T19:47:18.661Z,99.90
2022-08-19T19:50:12.746Z,99.90
2022-08-19T19:52:34.011Z,99.90
2022-08-19T19:55:01.636Z,99.90
2022-08-19T19:57:30.382Z,99.90
2022-08-19T19:59:58.254Z,99.90
2022-08-19T20:02:25.375Z,99.90
2022-08-19T20:04:54.007Z,99.90
2022-08-19T20:07:43.694Z,99.90
2022-08-19T20:10:10.486Z,99.90
2022-08-19T20:12:39.206Z,99.90
2022-08-19T20:15:07.487Z,99.90
2022-08-19T20:17:35.419Z,99.90
2022-08-19T20:20:02.339Z,99.90
2022-08-19T20:22:29.148Z,99.90
2022-08-19T20:25:01.298Z,99.90
2022-08-19T20:27:29.287Z,99.90
2022-08-19T20:29:58.155Z,99.90
2022-08-19T20:32:25.096Z,99.90
2022-08-19T20:34:52.112Z,99.90
2022-08-19T20:37:18.885Z,99.90
2022-08-19T20:39:45.690Z,99.90
2022-08-19T20:42:13.381Z,99.90
2022-08-19T20:44:40.227Z,99.90
2022-08-19T20:47:07.061Z,99.90
2022-08-19T20:49:35.241Z,99.90
2022-08-19T20:52:03.797Z,99.90
2022-08-19T20:54:30.956Z,99.90
2022-08-19T20:56:57.797Z,99.90
2022-08-19T20:59:25.902Z,99.90
2022-08-19T21:01:54.441Z,99.90
2022-08-19T21:04:21.964Z,99.90
2022-08-19T21:06:50.280Z,99.90
2022-08-19T21:09:17.526Z,99.90
2022-08-19T21:11:44.419Z,99.90
2022-08-19T21:14:11.942Z,99.90
2022-08-19T21:16:38.964Z,99.90
2022-08-19T21:19:05.830Z,99.90
2022-08-19T21:21:33.289Z,99.90
2022-08-19T21:24:00.213Z,99.90
2022-08-19T21:26:27.381Z,99.90
2022-08-19T21:28:54.263Z,99.90
2022-08-19T21:31:21.165Z,99.90
2022-08-19T21:33:48.096Z,99.90
2022-08-19T21:36:15.045Z,99.90
2022-08-19T21:38:42.137Z,99.90
2022-08-19T21:41:09.673Z,99.90
2022-08-19T21:43:37.931Z,99.90
2022-08-19T21:46:05.384Z,99.90
2022-08-19T21:48:32.935Z,99.90
2022-08-19T21:50:59.730Z,99.90
2022-08-19T21:53:33.250Z,99.90
2022-08-19T21:56:01.554Z,99.90
2022-08-19T21:58:30.488Z,99.90
2022-08-19T22:00:59.314Z,99.90
2022-08-19T22:03:27.185Z,99.90
2022-08-19T22:05:54.044Z,99.90
2022-08-19T22:08:20.878Z,99.90
2022-08-19T22:10:49.670Z,99.90
2022-08-19T22:13:18.131Z,99.90
2022-08-19T22:15:46.285Z,99.90
2022-08-19T22:18:13.753Z,99.90
2022-08-19T22:20:40.581Z,99.90
2022-08-19T22:23:07.904Z,99.90
2022-08-19T22:25:39.571Z,99.90
2022-08-19T22:28:10.982Z,99.90
2022-08-19T22:30:41.716Z,99.90
2022-08-19T22:33:12.868Z,99.90
2022-08-19T22:35:41.449Z,99.90
2022-08-19T22:38:09.116Z,99.90
2022-08-19T22:40:39.733Z,99.90
2022-08-19T22:43:08.191Z,99.90
2022-08-19T22:45:39.126Z,99.90
2022-08-19T22:48:08.562Z,99.90
2022-08-19T22:50:40.008Z,99.90
2022-08-19T22:53:07.772Z,99.90
2022-08-19T22:55:39.124Z,99.90
2022-08-19T22:58:06.032Z,99.90
2022-08-19T23:00:33.412Z,99.90
2022-08-19T23:03:02.156Z,99.90
2022-08-19T23:05:29.737Z,99.90
2022-08-19T23:07:58.295Z,99.90
2022-08-19T23:10:29.114Z,99.90
2022-08-19T23:12:59.163Z,99.90
2022-08-19T23:15:29.433Z,99.90
2022-08-19T23:17:58.924Z,99.90
2022-08-19T23:20:28.328Z,99.90
2022-08-19T23:22:55.811Z,99.90
2022-08-19T23:25:28.909Z,99.90
2022-08-19T23:28:14.839Z,99.90
2022-08-19T23:30:44.499Z,99.90
2022-08-19T23:33:50.683Z,99.90
2022-08-19T23:36:17.231Z,99.90
2022-08-19T23:38:46.546Z,99.90
2022-08-19T23:41:14.473Z,99.90
2022-08-19T23:43:42.982Z,99.90
2022-08-19T23:46:12.810Z,99.90
2022-08-19T23:48:40.274Z,99.90
2022-08-19T23:51:10.511Z,99.90
2022-08-19T23:53:39.507Z,99.90
2022-08-19T23:56:07.987Z,99.90
2022-08-19T23:58:36.265Z,99.90
